Latest Weather Observations for Pound Creek

IDV60801

Issued at 4:05 pm EST Thursday 24 April 2014 (issued every 30 minutes, with the page automatically refreshed every 10 minutes)

About weather observations | Map of weather stations | Latest weather observations for VIC | Other Formats
Station Details ID: 085099 Name: POUND CREEK Lat: -38.63 Lon: 145.81 Height: 3.0 m
Data from the previous 72 hours. | See also: Recent months at Pound Creek
Date/Time
EST
Temp
°C
App
Temp
°C
Dew
Point
Rel
Hum
%
Delta-T
°C
Wind Press
QNH
hPa
Press
MSL
hPa
Rain
since 9 am
mm
Dir
 
Spd
km/h
Gust
km/h
Spd
kts
Gust
kts
24/04:00pm 14.7 8.3 5.2 53 4.5 WSW 28 39 15 21 1017.7 1017.7 0.0
24/03:30pm 15.0 7.6 5.0 51 4.7 WSW 33 44 18 24 1017.4 - 0.0
24/03:00pm 15.2 7.0 4.6 49 4.9 WSW 37 46 20 25 1017.0 1017.0 0.0
24/02:30pm 15.3 7.7 5.8 53 4.5 WSW 35 48 19 26 1017.0 - 0.0
24/02:00pm 15.5 7.5 5.7 52 4.7 WSW 37 48 20 26 1016.4 1016.4 0.0
24/01:39pm 15.9 8.4 6.1 52 4.7 WSW 35 56 19 30 1016.3 - 0.0
24/01:30pm 15.8 8.4 5.1 49 5.1 WSW 33 48 18 26 1016.3 - 0.0
24/01:05pm 16.0 7.8 4.7 47 5.3 WSW 37 56 20 30 1016.3 - 0.0
24/01:00pm 15.8 6.8 4.8 48 5.2 WSW 41 54 22 29 1016.2 1016.2 0.0
24/12:46pm 15.4 6.6 3.5 45 5.4 WSW 39 57 21 31 1016.1 - 0.0
24/12:30pm 14.7 6.6 5.2 53 4.5 WSW 37 50 20 27 1016.1 - 0.0
24/12:00pm 15.5 7.1 3.6 45 5.4 WSW 37 57 20 31 1016.0 1016.0 0.0
24/11:58am 15.6 7.2 3.7 45 5.5 WSW 37 57 20 31 1016.0 - 0.0
24/11:30am 15.7 7.1 4.7 48 5.2 WSW 39 50 21 27 1015.7 - 0.0
24/11:00am 15.8 7.5 6.0 52 4.7 WSW 39 52 21 28 1015.4 1015.4 0.0
24/10:40am 15.5 7.4 6.8 56 4.3 WSW 39 57 21 31 1014.9 - 0.0
24/10:30am 14.7 6.5 6.5 58 4.0 WSW 39 56 21 30 1014.7 - 0.0
24/10:00am 14.5 6.3 8.0 65 3.2 WSW 41 54 22 29 1014.1 1014.1 0.0
24/09:30am 14.7 7.6 9.5 71 2.7 WSW 37 54 20 29 1013.5 - 0.0
24/09:00am 14.5 6.4 8.7 68 2.9 WSW 41 54 22 29 1012.8 1012.8 2.4
24/08:48am 14.1 7.5 9.9 76 2.2 WSW 35 46 19 25 1012.6 - 2.4
24/08:30am 13.2 10.2 12.1 93 0.6 W 19 28 10 15 1012.2 - 2.4
24/08:00am 13.0 7.8 11.7 92 0.7 W 30 43 16 23 1011.4 1011.4 1.4
24/07:30am 14.5 10.9 8.5 67 3.0 NW 17 32 9 17 1010.4 - 0.0
24/07:00am 14.9 10.5 7.2 60 3.8 NW 20 37 11 20 1009.7 1009.7 0.0
24/06:30am 15.1 10.6 6.1 55 4.3 NW 19 33 10 18 1009.1 - 0.0
24/06:00am 15.0 10.5 6.0 55 4.3 NW 19 28 10 15 1009.0 1009.0 0.0
24/05:30am 14.7 10.5 5.5 54 4.4 NW 17 26 9 14 1009.0 - 0.0
24/05:00am 14.3 9.7 5.7 56 4.1 NNW 19 33 10 18 1008.9 1008.9 0.0
24/04:30am 14.4 9.8 5.5 55 4.2 NNW 19 28 10 15 1008.5 - 0.0
24/04:00am 14.0 9.5 5.9 58 3.9 NNW 19 35 10 19 1008.7 1008.7 0.0
24/03:30am 13.4 9.7 6.3 62 3.4 NNW 15 24 8 13 1008.9 - 0.0
24/03:00am 12.7 9.3 6.1 64 3.1 NNW 13 19 7 10 1009.1 1009.1 0.0
24/02:30am 13.1 9.0 6.2 63 3.3 NNW 17 24 9 13 1009.6 - 0.0
24/02:00am 12.4 8.8 6.7 68 2.7 NNW 15 20 8 11 1009.8 1009.8 0.0
24/01:30am 11.9 8.6 6.6 70 2.5 NNW 13 17 7 9 1010.2 - 0.0
24/01:00am 11.7 8.6 7.4 75 2.1 NNW 13 19 7 10 1010.6 1010.6 0.0
24/12:30am 8.6 6.6 7.1 90 0.7 N 7 9 4 5 1011.0 - 0.0
24/12:00am 9.9 7.3 7.7 86 1.1 N 11 17 6 9 1011.3 1011.3 0.0
 
Date/Time
EST
Temp
°C
App
Temp
°C
Dew
Point
Rel
Hum
%
Delta-T
°C
Wind Press
QNH
hPa
Press
MSL
hPa
Rain
since 9 am
mm
Dir
 
Spd
km/h
Gust
km/h
Spd
kts
Gust
kts
23/11:30pm 10.0 7.1 8.3 89 0.8 NNE 13 17 7 9 1011.7 - 0.0
23/11:00pm 9.6 7.9 8.2 91 0.7 N 7 11 4 6 1011.9 1011.9 0.0
23/10:30pm 9.8 8.1 8.2 90 0.8 N 7 11 4 6 1012.4 - 0.0
23/10:00pm 9.2 7.3 7.6 90 0.8 N 7 11 4 6 1012.5 1012.5 0.0
23/09:30pm 10.6 8.5 8.4 86 1.1 N 9 13 5 7 1012.8 - 0.0
23/09:00pm 10.6 8.9 9.7 94 0.5 N 9 13 5 7 1012.9 1012.9 0.0
23/08:30pm 9.2 7.1 8.3 94 0.4 N 9 11 5 6 1013.0 - 0.0
23/08:00pm 8.7 7.0 7.5 92 0.6 N 6 7 3 4 1012.9 1012.9 0.0
23/07:30pm 9.2 7.6 7.8 91 0.7 N 6 7 3 4 1013.2 - 0.0
23/07:00pm 10.2 9.1 8.5 89 0.8 N 4 6 2 3 1013.1 1013.1 0.0
23/06:30pm 11.5 10.6 9.1 85 1.2 N 4 6 2 3 1013.1 - 0.0
23/06:00pm 12.5 11.5 8.8 78 1.8 NW 4 6 2 3 1013.2 1013.2 0.0
23/05:30pm 14.2 12.8 9.4 73 2.5 WNW 7 9 4 5 1013.3 - 0.0
23/05:00pm 16.1 15.0 10.8 71 2.8 WNW 7 11 4 6 1013.2 1013.2 0.0
23/04:30pm 15.9 14.5 10.9 72 2.7 W 9 15 5 8 1013.2 - 0.0
23/04:00pm 16.8 15.1 11.3 70 3.0 W 11 15 6 8 1013.3 1013.3 0.0
23/03:30pm 16.9 15.4 11.8 72 2.8 W 11 17 6 9 1013.3 - 0.0
23/03:00pm 17.2 15.6 11.7 70 3.0 W 11 15 6 8 1013.4 1013.4 0.0
23/02:30pm 17.1 14.4 11.6 70 3.0 WSW 17 22 9 12 1013.5 - 0.0
23/02:00pm 18.3 16.1 10.9 62 4.0 W 13 24 7 13 1013.5 1013.5 0.0
23/01:30pm 18.7 16.3 10.0 57 4.6 WNW 13 20 7 11 1013.9 - 0.0
23/01:00pm 16.9 14.9 11.4 70 3.0 SSW 13 19 7 10 1014.4 1014.4 0.0
23/12:30pm 17.6 16.0 10.2 62 3.9 WSW 9 17 5 9 1014.7 - 0.0
23/12:00pm 17.6 15.7 9.2 58 4.4 WNW 9 15 5 8 1015.1 1015.1 0.0
23/11:30am 17.7 16.3 9.6 59 4.3 W 7 17 4 9 1015.4 - 0.0
23/11:00am 17.1 16.0 10.5 65 3.5 WSW 7 13 4 7 1015.9 1015.9 0.0
23/10:30am 16.7 15.9 11.6 72 2.8 SSW 7 9 4 5 1016.2 - 0.0
23/10:00am 16.9 16.3 11.8 72 2.8 WSW 6 11 3 6 1016.5 1016.5 0.0
23/09:30am 15.6 15.4 11.8 78 2.1 N 4 6 2 3 1016.5 - 0.0
23/09:00am 14.9 14.8 12.0 83 1.6 N 4 6 2 3 1016.5 1016.5 0.2
23/08:30am 12.6 13.1 11.5 93 0.6 CALM 0 4 0 2 1016.5 - 0.2
23/08:00am 11.1 11.1 9.9 92 0.6 CALM 0 0 0 0 1016.4 1016.4 0.2
23/07:30am 11.2 10.4 9.8 91 0.7 N 4 7 2 4 1016.3 - 0.2
23/07:00am 11.7 10.6 10.6 93 0.6 N 7 9 4 5 1016.3 1016.3 0.2
23/06:30am 11.4 9.5 10.5 94 0.5 N 11 13 6 7 1016.4 - 0.2
23/06:00am 11.5 9.6 10.4 93 0.6 N 11 13 6 7 1016.3 1016.3 0.2
23/05:30am 11.9 10.1 10.8 93 0.6 N 11 15 6 8 1016.1 - 0.2
23/05:00am 11.4 9.0 10.1 92 0.7 N 13 15 7 8 1016.1 1016.1 0.2
23/04:30am 11.0 8.9 9.9 93 0.6 NNE 11 13 6 7 1016.0 - 0.2
23/04:00am 10.2 9.6 8.8 91 0.7 NNE 2 4 1 2 1016.0 1016.0 0.2
23/03:30am 10.8 10.0 9.6 92 0.6 N 4 6 2 3 1016.1 - 0.2
23/03:00am 11.0 10.2 9.6 91 0.7 NNE 4 6 2 3 1016.3 1016.3 0.2
23/02:30am 11.0 9.8 9.4 90 0.8 N 6 7 3 4 1016.5 - 0.2
23/02:00am 10.8 9.3 9.2 90 0.8 N 7 9 4 5 1016.8 1016.8 0.2
23/01:30am 10.7 9.2 9.3 91 0.7 N 7 9 4 5 1016.9 - 0.2
23/01:00am 10.8 9.3 9.1 89 0.8 N 7 9 4 5 1017.0 1017.0 0.2
23/12:30am 11.7 10.9 9.6 87 1.1 N 4 6 2 3 1017.1 - 0.2
23/12:00am 12.1 11.3 9.8 86 1.2 N 4 6 2 3 1017.2 1017.2 0.2
 
Date/Time
EST
Temp
°C
App
Temp
°C
Dew
Point
Rel
Hum
%
Delta-T
°C
Wind Press
QNH
hPa
Press
MSL
hPa
Rain
since 9 am
mm
Dir
 
Spd
km/h
Gust
km/h
Spd
kts
Gust
kts
22/11:30pm 12.6 11.3 10.0 84 1.3 NNW 7 9 4 5 1017.5 - 0.2
22/11:00pm 13.0 12.1 10.5 85 1.3 NNW 6 7 3 4 1017.7 1017.7 0.2
22/10:30pm 13.5 12.5 10.3 81 1.7 NW 6 7 3 4 1017.8 - 0.2
22/10:00pm 13.8 12.9 10.6 81 1.7 NW 6 7 3 4 1017.8 1017.8 0.2
22/09:30pm 13.7 12.8 10.7 82 1.6 NW 6 6 3 3 1017.5 - 0.2
22/09:00pm 13.9 13.1 10.9 82 1.6 NNW 6 7 3 4 1017.3 1017.3 0.2
22/08:30pm 14.5 14.4 10.7 78 2.0 SW 2 6 1 3 1017.1 - 0.2
22/08:00pm 15.1 14.0 10.5 74 2.4 SSW 7 11 4 6 1016.9 1016.9 0.2
22/07:30pm 15.0 13.6 10.8 76 2.2 SW 9 13 5 7 1016.8 - 0.2
22/07:00pm 15.0 12.7 10.6 75 2.3 SW 13 19 7 10 1016.6 1016.6 0.2
22/06:30pm 15.4 12.8 10.8 74 2.4 SW 15 20 8 11 1016.2 - 0.2
22/06:00pm 15.6 12.8 11.2 75 2.4 SW 17 22 9 12 1015.7 1015.7 0.2
22/05:30pm 15.7 13.2 11.1 74 2.5 WSW 15 20 8 11 1015.4 - 0.2
22/05:00pm 15.8 13.8 11.6 76 2.3 WSW 13 19 7 10 1015.0 1015.0 0.2
22/04:30pm 15.8 14.6 12.7 82 1.7 WSW 11 17 6 9 1014.8 - 0.2
22/04:00pm 15.6 14.8 14.1 91 0.8 WSW 11 15 6 8 1014.5 1014.5 0.2
22/03:30pm 15.4 12.4 13.6 89 1.0 WSW 22 37 12 20 1014.4 - 0.2
22/03:00pm 17.4 15.3 13.5 78 2.2 W 17 26 9 14 1013.9 1013.9 0.2
22/02:30pm 18.7 17.1 14.0 74 2.7 WNW 15 24 8 13 1013.9 - 0.2
22/02:00pm 17.5 15.1 12.8 74 2.6 NW 17 32 9 17 1013.8 1013.8 0.2
22/01:30pm 18.1 15.4 12.8 71 3.0 NW 19 30 10 16 1013.6 - 0.2
22/01:00pm 17.4 14.6 12.7 74 2.6 NW 19 33 10 18 1013.7 1013.7 0.2
22/12:30pm 17.3 15.3 12.6 74 2.6 NW 15 28 8 15 1013.9 - 0.2
22/12:00pm 17.3 14.1 12.0 71 2.9 NNW 20 33 11 18 1013.9 1013.9 0.2
22/11:30am 16.6 13.5 12.2 75 2.4 NNW 20 33 11 18 1014.2 - 0.2
22/11:00am 16.9 13.6 12.8 77 2.3 NNW 22 35 12 19 1014.2 1014.2 0.0
22/10:30am 16.1 13.3 12.7 80 1.9 NNW 19 32 10 17 1014.0 - 0.0
22/10:00am 15.3 12.2 12.1 81 1.7 N 20 35 11 19 1013.8 1013.8 0.0
22/09:30am 14.9 10.8 12.6 86 1.3 N 26 37 14 20 1013.7 - 0.0
22/09:00am 13.6 12.6 12.3 92 0.7 NW 9 19 5 10 1014.3 1014.3 7.8
22/08:30am 13.4 10.3 12.1 92 0.7 NNW 20 37 11 20 1015.1 - 7.0
22/08:00am 13.4 10.4 12.0 91 0.8 NNW 19 30 10 16 1014.8 1014.8 5.8
22/07:30am 13.5 11.2 11.9 90 0.9 NW 15 28 8 15 1014.9 - 4.2
22/07:00am 13.5 8.8 11.9 90 0.9 W 28 44 15 24 1014.8 1014.8 2.8
22/06:58am 13.5 8.8 11.9 90 0.9 W 28 44 15 24 1015.0 - 2.8
22/06:30am 13.9 13.0 11.2 84 1.4 NW 7 15 4 8 1013.9 - 0.4
22/06:00am 14.5 13.0 10.5 77 2.1 NNW 9 15 5 8 1013.2 1013.2 0.0
22/05:30am 13.4 12.7 10.0 80 1.8 NNW 4 7 2 4 1013.6 - 0.0
22/05:00am 13.8 13.1 10.0 78 2.0 NNW 4 6 2 3 1012.9 1012.9 0.0
22/04:30am 14.0 13.1 9.4 74 2.4 N 4 6 2 3 1012.3 - 0.0
22/04:00am 14.5 13.6 9.1 70 2.8 WNW 4 6 2 3 1012.2 1012.2 0.0
22/03:30am 15.5 13.3 9.4 67 3.1 W 11 19 6 10 1012.9 - 0.0
22/03:00am 16.3 13.4 11.0 71 2.8 WSW 17 26 9 14 1013.4 1013.4 0.0
22/02:30am 16.0 13.7 9.0 63 3.6 WSW 11 17 6 9 1012.7 - 0.0
22/02:00am 15.7 13.6 9.6 67 3.2 SW 11 17 6 9 1012.5 1012.5 0.0
22/01:30am 16.5 14.2 7.4 55 4.5 N 9 15 5 8 1011.6 - 0.0
22/01:00am 17.1 14.1 7.5 53 4.8 N 13 19 7 10 1011.7 1011.7 0.0
22/12:30am 17.8 14.4 7.5 51 5.2 NNW 15 24 8 13 1012.0 - 0.0
22/12:00am 18.1 14.3 7.5 50 5.4 NNW 17 24 9 13 1012.3 1012.3 0.0
 
Date/Time
EST
Temp
°C
App
Temp
°C
Dew
Point
Rel
Hum
%
Delta-T
°C
Wind Press
QNH
hPa
Press
MSL
hPa
Rain
since 9 am
mm
Dir
 
Spd
km/h
Gust
km/h
Spd
kts
Gust
kts
21/11:30pm 18.2 14.4 7.6 50 5.4 NNW 17 28 9 15 1012.3 - 0.0
21/11:00pm 17.8 14.4 7.8 52 5.1 N 15 22 8 12 1012.5 1012.5 0.0
21/10:30pm 17.9 14.9 7.9 52 5.1 N 13 22 7 12 1012.8 - 0.0
21/10:00pm 17.8 14.9 8.1 53 5.0 N 13 22 7 12 1012.9 1012.9 0.0
21/09:30pm 17.3 14.8 8.2 55 4.6 N 11 15 6 8 1012.8 - 0.0
21/09:00pm 17.8 14.2 8.4 54 4.8 N 17 26 9 14 1013.0 1013.0 0.0
21/08:30pm 17.6 15.2 8.7 56 4.6 N 11 19 6 10 1013.1 - 0.0
21/08:00pm 17.2 15.7 9.1 59 4.2 N 7 13 4 7 1013.2 1013.2 0.0
21/07:30pm 17.5 15.6 9.2 58 4.3 N 9 15 5 8 1013.0 - 0.0
21/07:00pm 16.6 14.9 9.8 64 3.6 NNE 9 15 5 8 1013.1 1013.1 0.0
21/06:30pm 16.9 13.9 9.3 61 3.9 N 15 19 8 10 1012.9 - 0.0
21/06:00pm 17.0 14.3 8.9 59 4.2 NNE 13 19 7 10 1013.0 1013.0 0.0
21/05:30pm 17.0 15.4 8.9 59 4.2 NNE 7 11 4 6 1013.5 - 0.0
21/05:00pm 17.5 14.7 8.6 56 4.6 N 13 20 7 11 1013.5 1013.5 0.0
21/04:30pm 17.7 14.3 9.1 57 4.5 N 17 24 9 13 1013.6 - 0.0

Other Formats:

Comma delimited format used in spreadsheet applications
http://www.bom.gov.au/fwo/IDV60801/IDV60801.94886.axf

JavaScript Object Notation format (JSON) in row-major order
http://www.bom.gov.au/fwo/IDV60801/IDV60801.94886.json